createdAt,value
2023-04-19T00:01:15.167Z,83.16
2023-04-19T00:06:18.054Z,83.63
2023-04-19T00:11:21.172Z,83.75
2023-04-19T00:16:24.262Z,84.66
2023-04-19T00:21:27.757Z,85.01
2023-04-19T00:26:30.697Z,85.35
2023-04-19T00:31:33.806Z,85.54
2023-04-19T00:36:36.715Z,86.43
2023-04-19T00:41:39.509Z,87.15
2023-04-19T00:46:43.647Z,87.43
2023-04-19T00:51:48.032Z,88.04
2023-04-19T00:56:51.682Z,87.72
2023-04-19T01:01:54.855Z,87.76
2023-04-19T01:06:57.832Z,88.01
2023-04-19T01:12:02.290Z,88.20
2023-04-19T01:17:05.991Z,88.70
2023-04-19T01:22:09.806Z,89.06
2023-04-19T01:27:14.249Z,89.16
2023-04-19T01:32:17.563Z,89.24
2023-04-19T01:37:20.478Z,89.64
2023-04-19T01:42:23.376Z,89.71
2023-04-19T01:47:26.284Z,90.19
2023-04-19T01:52:29.184Z,90.00
2023-04-19T01:57:32.104Z,90.18
2023-04-19T02:02:38.554Z,90.42
2023-04-19T02:07:41.689Z,90.87
2023-04-19T02:12:44.684Z,92.03
2023-04-19T02:17:47.554Z,92.62
2023-04-19T02:22:50.532Z,92.60
2023-04-19T02:27:54.021Z,92.60
2023-04-19T02:32:58.960Z,92.65
2023-04-19T02:38:03.941Z,92.46
2023-04-19T02:43:06.822Z,92.62
2023-04-19T02:48:09.766Z,92.81
2023-04-19T02:53:12.853Z,92.46
2023-04-19T02:58:15.935Z,92.13
2023-04-19T03:03:19.292Z,91.55
2023-04-19T03:08:22.260Z,90.99
2023-04-19T03:13:25.173Z,90.40
2023-04-19T03:18:27.976Z,89.91
2023-04-19T03:23:31.073Z,89.07
2023-04-19T03:28:33.979Z,88.13
2023-04-19T03:33:36.874Z,87.05
2023-04-19T03:38:41.001Z,85.67
2023-04-19T03:43:43.904Z,84.69
2023-04-19T03:48:47.021Z,83.90
2023-04-19T03:53:49.926Z,83.20
2023-04-19T03:58:53.028Z,82.98
2023-04-19T04:03:56.069Z,82.66
2023-04-19T04:08:59.048Z,81.81
2023-04-19T04:14:01.943Z,81.49
2023-04-19T04:19:04.844Z,81.75
2023-04-19T04:24:08.156Z,82.31
2023-04-19T04:29:11.112Z,83.42
2023-04-19T04:34:14.577Z,84.25
2023-04-19T04:39:18.422Z,85.42
2023-04-19T04:44:22.745Z,86.21
2023-04-19T04:49:25.770Z,87.15
2023-04-19T04:54:28.678Z,88.04
2023-04-19T04:59:31.581Z,88.56
2023-04-19T05:04:34.556Z,88.83
2023-04-19T05:09:37.489Z,88.48
2023-04-19T05:14:40.494Z,87.97
2023-04-19T05:19:43.397Z,87.55
2023-04-19T05:24:47.426Z,86.91
2023-04-19T05:29:51.683Z,86.70
2023-04-19T05:34:54.508Z,86.04
2023-04-19T05:39:58.440Z,85.67
2023-04-19T05:45:02.890Z,85.50
2023-04-19T05:50:08.217Z,85.42
2023-04-19T05:55:11.227Z,84.91
2023-04-19T06:00:16.206Z,84.60
2023-04-19T06:05:20.322Z,83.56
2023-04-19T06:10:24.070Z,82.90
2023-04-19T06:15:27.331Z,81.64
2023-04-19T06:20:30.431Z,79.81
2023-04-19T06:25:33.848Z,77.32
2023-04-19T06:30:36.779Z,73.87
2023-04-19T06:35:39.664Z,70.63
2023-04-19T06:40:42.665Z,68.96
2023-04-19T06:45:45.611Z,68.09
2023-04-19T06:50:48.481Z,69.44
2023-04-19T06:56:00.002Z,70.18
2023-04-19T07:01:06.076Z,71.34
2023-04-19T07:06:09.192Z,72.24
2023-04-19T07:11:12.175Z,73.74
2023-04-19T07:16:15.204Z,74.59
2023-04-19T07:21:18.180Z,74.76
2023-04-19T07:26:21.189Z,75.09
2023-04-19T07:31:27.370Z,75.85
2023-04-19T07:36:31.628Z,76.42
2023-04-19T07:41:35.921Z,76.98
2023-04-19T07:46:39.775Z,77.33
2023-04-19T07:51:42.773Z,76.97
2023-04-19T07:56:46.204Z,75.94
2023-04-19T08:01:49.916Z,72.66
2023-04-19T08:06:53.973Z,67.52
2023-04-19T08:11:58.092Z,66.97
2023-04-19T08:22:07.061Z,70.14
2023-04-19T08:27:11.301Z,71.77
2023-04-19T08:32:14.238Z,73.12
2023-04-19T08:37:17.230Z,74.05
2023-04-19T08:42:35.125Z,75.08
2023-04-19T08:47:56.342Z,76.13
2023-04-19T08:53:16.469Z,77.34
2023-04-19T08:58:36.567Z,78.38
2023-04-19T09:04:02.423Z,79.27
2023-04-19T09:14:28.316Z,79.08
2023-04-19T09:19:46.791Z,79.01
2023-04-19T09:30:01.532Z,79.84
2023-04-19T09:35:05.943Z,80.09
2023-04-19T09:40:28.239Z,80.59
2023-04-19T09:45:45.468Z,81.04
2023-04-19T09:51:05.855Z,81.24
2023-04-19T09:56:13.097Z,81.42
2023-04-19T10:01:19.309Z,81.55
2023-04-19T10:11:40.329Z,79.41
2023-04-19T10:16:43.868Z,79.53
2023-04-19T10:21:49.525Z,79.60
2023-04-19T10:27:09.219Z,79.35
2023-04-19T10:32:14.078Z,78.51
2023-04-19T10:37:17.162Z,78.28
2023-04-19T10:42:20.059Z,78.25
2023-04-19T10:47:52.082Z,77.34
2023-04-19T10:52:55.072Z,76.26
2023-04-19T10:58:07.833Z,75.10
2023-04-19T11:03:45.317Z,73.22
2023-04-19T11:08:48.527Z,71.52
2023-04-19T11:13:51.916Z,71.25
2023-04-19T11:18:56.639Z,71.06
2023-04-19T11:24:13.154Z,70.54
2023-04-19T11:29:16.213Z,71.27
2023-04-19T11:34:23.064Z,71.39
2023-04-19T11:39:26.229Z,72.07
2023-04-19T11:44:29.150Z,72.68
2023-04-19T11:49:34.133Z,72.27
2023-04-19T11:54:37.414Z,72.62
2023-04-19T12:00:08.718Z,73.34
2023-04-19T12:05:14.524Z,73.82
2023-04-19T12:10:17.556Z,73.03
2023-04-19T12:15:22.456Z,71.62
2023-04-19T12:20:35.380Z,72.41
2023-04-19T12:25:38.556Z,72.74
2023-04-19T12:30:42.399Z,72.56
2023-04-19T12:35:46.096Z,72.83
2023-04-19T12:40:49.004Z,72.75
2023-04-19T12:45:51.944Z,72.78
2023-04-19T12:50:55.318Z,72.47
2023-04-19T12:55:58.853Z,73.07
2023-04-19T13:01:01.780Z,74.13
2023-04-19T13:06:05.748Z,74.60
2023-04-19T13:11:08.883Z,73.40
2023-04-19T13:16:11.815Z,72.24
2023-04-19T13:21:15.100Z,72.49
2023-04-19T13:26:18.059Z,72.33
2023-04-19T13:31:20.988Z,70.53
2023-04-19T13:36:23.946Z,69.52
2023-04-19T13:41:26.834Z,68.02
2023-04-19T13:46:29.763Z,64.14
2023-04-19T13:51:46.516Z,59.54
2023-04-19T13:56:52.565Z,58.51
2023-04-19T14:01:56.308Z,60.16
2023-04-19T14:06:59.274Z,58.04
2023-04-19T14:12:02.685Z,55.85
2023-04-19T14:17:05.787Z,53.46
2023-04-19T14:22:08.695Z,53.09
2023-04-19T14:27:12.138Z,52.82
2023-04-19T14:37:23.294Z,53.02
2023-04-19T14:42:26.251Z,52.17
2023-04-19T14:47:29.191Z,51.15
2023-04-19T14:52:32.368Z,50.08
2023-04-19T14:57:35.268Z,49.05
2023-04-19T15:02:38.269Z,49.27
2023-04-19T15:07:41.894Z,49.48
2023-04-19T15:12:45.010Z,49.22
2023-04-19T15:17:47.823Z,48.61
2023-04-19T15:22:51.027Z,48.46
2023-04-19T15:27:53.925Z,48.67
2023-04-19T15:32:57.067Z,49.13
2023-04-19T15:38:00.044Z,49.42
2023-04-19T15:43:02.946Z,49.67
2023-04-19T15:48:06.311Z,49.88
2023-04-19T15:53:10.088Z,50.07
2023-04-19T15:58:12.882Z,51.08
2023-04-19T16:03:16.230Z,52.46
2023-04-19T16:08:19.920Z,53.69
2023-04-19T16:13:22.827Z,55.22
2023-04-19T16:18:25.949Z,56.39
2023-04-19T16:23:29.146Z,57.46
2023-04-19T16:28:32.067Z,58.36
2023-04-19T16:33:35.266Z,59.33
2023-04-19T16:38:38.074Z,60.30
2023-04-19T16:43:41.170Z,61.11
2023-04-19T16:48:44.179Z,61.78
2023-04-19T16:53:47.435Z,62.51
2023-04-19T16:58:51.086Z,63.12
2023-04-19T17:03:54.059Z,63.63
2023-04-19T17:08:57.027Z,63.97
2023-04-19T17:14:00.172Z,63.28
2023-04-19T17:19:03.039Z,62.54
2023-04-19T17:24:06.160Z,63.09
2023-04-19T17:29:09.176Z,63.48
2023-04-19T17:34:12.138Z,63.85
2023-04-19T17:39:15.643Z,64.63
2023-04-19T17:44:18.782Z,65.27
2023-04-19T17:49:22.133Z,66.96
2023-04-19T17:54:25.108Z,70.40
2023-04-19T17:59:28.422Z,72.06
2023-04-19T18:04:31.661Z,74.10
2023-04-19T18:09:34.745Z,75.23
2023-04-19T18:14:37.645Z,74.95
2023-04-19T18:19:40.757Z,74.69
2023-04-19T18:24:46.732Z,75.07
2023-04-19T18:29:53.045Z,75.65
2023-04-19T18:34:56.027Z,76.06
2023-04-19T18:39:59.454Z,76.76
2023-04-19T18:45:04.264Z,77.03
2023-04-19T18:50:08.873Z,77.02
2023-04-19T18:55:13.896Z,76.81
2023-04-19T19:00:17.431Z,76.84
2023-04-19T19:05:21.122Z,76.82
2023-04-19T19:15:29.903Z,77.61
2023-04-19T19:20:33.011Z,78.13
2023-04-19T19:25:35.914Z,78.55
2023-04-19T19:30:42.931Z,79.25
2023-04-19T19:35:46.073Z,79.84
2023-04-19T19:41:24.575Z,80.15
2023-04-19T19:46:13.884Z,80.58
2023-04-19T19:51:44.136Z,81.01
2023-04-19T19:56:53.859Z,81.77
2023-04-19T20:02:03.807Z,82.34
2023-04-19T20:07:32.937Z,82.61
2023-04-19T20:12:32.472Z,83.06
2023-04-19T20:17:35.805Z,83.29
2023-04-19T20:22:38.787Z,83.68
2023-04-19T20:27:41.701Z,84.68
2023-04-19T20:32:44.635Z,85.41
2023-04-19T20:37:47.541Z,86.08
2023-04-19T20:42:50.518Z,86.77
2023-04-19T20:47:54.436Z,87.27
2023-04-19T20:52:58.570Z,87.66
2023-04-19T20:58:02.719Z,87.66
2023-04-19T21:03:06.671Z,87.71
2023-04-19T21:08:09.740Z,87.76
2023-04-19T21:13:12.750Z,87.85
2023-04-19T21:18:15.755Z,87.71
2023-04-19T21:23:18.663Z,87.80
2023-04-19T21:28:22.734Z,87.40
2023-04-19T21:33:25.600Z,87.27
2023-04-19T21:38:28.500Z,87.30
2023-04-19T21:43:31.917Z,87.54
2023-04-19T21:48:34.926Z,87.79
2023-04-19T21:53:38.343Z,87.69
2023-04-19T21:58:41.247Z,87.68
2023-04-19T22:03:45.967Z,87.87
2023-04-19T22:08:49.920Z,87.87
2023-04-19T22:13:52.719Z,88.01
2023-04-19T22:18:56.240Z,88.21
2023-04-19T22:23:59.155Z,88.26
2023-04-19T22:29:02.265Z,88.65
2023-04-19T22:34:05.254Z,88.78
2023-04-19T22:39:09.284Z,89.07
2023-04-19T22:44:12.206Z,89.38
2023-04-19T22:49:15.514Z,89.65
2023-04-19T22:54:18.610Z,89.75
2023-04-19T22:59:21.617Z,90.32
2023-04-19T23:04:24.606Z,90.58
2023-04-19T23:09:29.968Z,90.62
2023-04-19T23:14:33.106Z,90.83
2023-04-19T23:19:37.867Z,91.07
2023-04-19T23:24:41.267Z,91.17
2023-04-19T23:29:44.115Z,91.40
2023-04-19T23:34:47.067Z,91.49
2023-04-19T23:39:49.873Z,91.76
2023-04-19T23:44:54.615Z,92.01
2023-04-19T23:49:57.524Z,92.37
2023-04-19T23:55:00.729Z,92.91
